EST,Max TemperatureF,Mean TemperatureF,Min TemperatureF,Max Dew PointF,MeanDew PointF,Min DewpointF,Max Humidity, Mean Humidity, Min Humidity, Max Sea Level PressureIn, Mean Sea Level PressureIn, Min Sea Level PressureIn, Max VisibilityMiles, Mean VisibilityMiles, Min VisibilityMiles, Max Wind SpeedMPH, Mean Wind SpeedMPH, Max Gust SpeedMPH,PrecipitationIn, CloudCover, Events, WindDirDegrees
2013-1-1,44,39,33,28,26,21,70,60,49,30.01,29.95,29.89,10,10,10,20,10,25,0.00,2,,289
2013-1-2,36,31,25,16,14,12,63,52,40,30.22,30.10,30.00,10,10,10,15,8,18,0.00,0,,317
2013-1-3,35,29,22,20,15,10,74,56,38,30.23,30.19,30.13,10,10,10,14,6,22,0.00,0,,271
2013-1-4,39,34,28,21,19,18,69,57,44,30.17,30.12,30.05,10,10,10,24,10,31,0.00,3,,256
2013-1-5,42,34,26,22,20,18,75,58,41,30.36,30.26,30.11,10,10,10,17,6,23,0.00,0,,269
2013-1-6,50,40,29,32,26,22,85,60,34,30.25,30.12,30.02,10,10,10,14,5,20,T,4,,254
2013-1-7,48,38,27,28,25,21,78,60,31,30.44,30.31,30.11,10,10,10,14,8,,0.00,1,,303
2013-1-8,51,37,22,34,28,19,92,67,41,30.46,30.42,30.38,10,9,6,16,4,22,0.00,2,,222
2013-1-9,56,43,29,42,35,27,92,71,50,30.40,30.33,30.22,10,10,2,15,5,20,0.00,4,,229
2013-1-10,51,41,30,32,26,24,72,54,36,30.54,30.49,30.34,10,10,10,16,6,25,0.00,0,,291
2013-1-11,52,40,27,51,41,25,100,81,61,30.51,30.25,30.07,10,6,1,16,4,24,0.44,6,Rain,136
2013-1-12,50,47,44,48,45,43,100,93,86,30.18,30.13,30.06,10,6,0,14,5,17,0.00,8,Fog,307
2013-1-13,53,47,40,52,45,39,100,90,80,30.17,30.11,30.03,10,4,0,13,6,17,0.00,7,Fog,173
2013-1-14,60,51,42,57,49,36,100,86,71,30.26,30.10,30.00,10,8,0,17,7,22,0.07,6,Fog-Rain,296
2013-1-15,42,39,35,37,35,31,92,87,82,30.34,30.28,30.17,10,6,2,16,6,21,0.66,8,Rain,18
2013-1-16,42,39,35,40,36,33,93,89,85,30.16,30.00,29.86,10,7,1,20,7,24,0.52,8,Rain,311
2013-1-17,42,39,35,37,33,28,92,76,60,30.12,30.06,29.99,10,10,9,15,4,17,T,7,Rain,296
2013-1-18,35,29,22,32,19,7,92,62,32,30.53,30.34,30.04,10,10,7,23,7,32,T,3,Snow,317
2013-1-19,51,39,26,33,23,16,70,49,28,30.45,30.26,30.01,10,10,10,22,12,28,0.00,0,,207
2013-1-20,57,45,32,28,24,12,57,44,30,30.08,29.89,29.78,10,10,10,25,14,37,0.00,0,,261
2013-1-21,36,31,25,25,16,9,85,59,32,30.13,29.96,29.80,10,9,1,22,7,27,0.05,4,Snow,351
2013-1-22,26,20,13,17,2,-4,88,62,36,30.27,30.10,29.89,10,10,10,28,16,34,0.00,0,,295
2013-1-23,23,16,9,3,-1,-5,73,55,36,30.32,30.26,30.20,10,10,8,20,8,26,0.00,1,,289
2013-1-24,26,19,12,6,1,-4,67,49,31,30.46,30.28,30.13,10,10,10,26,11,38,0.00,4,,322
2013-1-25,24,17,10,16,7,-1,92,64,35,30.47,30.27,30.08,10,8,1,10,4,14,0.05,5,Snow,297
2013-1-26,28,19,9,14,10,6,92,69,46,30.42,30.20,30.08,10,10,9,22,9,26,0.00,2,,302
2013-1-27,36,23,10,14,10,4,76,56,35,30.57,30.51,30.43,10,10,9,17,7,23,0.00,0,,292
2013-1-28,40,29,18,35,28,12,92,81,69,30.54,30.30,30.06,10,5,1,13,6,17,0.12,7,Rain-Snow,214
2013-1-29,56,46,36,46,41,35,96,81,66,30.17,30.10,30.05,10,6,0,10,5,16,0.00,6,Fog,170
2013-1-30,59,53,47,54,49,45,93,87,80,30.07,29.79,29.44,10,5,1,33,16,50,0.00,6,,185
2013-1-31,59,45,30,56,32,8,93,61,28,29.91,29.49,29.21,10,9,3,39,21,54,0.39,4,Rain,257